sensor_id;sensor_type;location;lat;lon;timestamp;P1;durP1;ratioP1;P2;durP2;ratioP2
5042;SDS011;2540;50.928;6.856;2023-04-03T00:00:37;2.93;;;1.80;;
5042;SDS011;2540;50.928;6.856;2023-04-03T00:03:02;6.70;;;2.10;;
5042;SDS011;2540;50.928;6.856;2023-04-03T00:05:28;10.70;;;3.40;;
5042;SDS011;2540;50.928;6.856;2023-04-03T00:07:53;2.87;;;2.10;;
5042;SDS011;2540;50.928;6.856;2023-04-03T00:10:19;5.93;;;1.97;;
5042;SDS011;2540;50.928;6.856;2023-04-03T00:12:44;3.57;;;2.10;;
5042;SDS011;2540;50.928;6.856;2023-04-03T00:15:10;3.47;;;2.30;;
5042;SDS011;2540;50.928;6.856;2023-04-03T00:17:36;4.83;;;2.00;;
5042;SDS011;2540;50.928;6.856;2023-04-03T00:20:01;4.10;;;2.00;;
5042;SDS011;2540;50.928;6.856;2023-04-03T00:22:27;8.70;;;2.77;;
5042;SDS011;2540;50.928;6.856;2023-04-03T00:24:53;4.20;;;2.63;;
5042;SDS011;2540;50.928;6.856;2023-04-03T00:27:19;9.83;;;2.20;;
5042;SDS011;2540;50.928;6.856;2023-04-03T00:29:44;5.57;;;2.17;;
5042;SDS011;2540;50.928;6.856;2023-04-03T00:32:10;8.10;;;1.93;;
5042;SDS011;2540;50.928;6.856;2023-04-03T00:34:35;8.77;;;1.90;;
5042;SDS011;2540;50.928;6.856;2023-04-03T00:37:00;5.13;;;2.57;;
5042;SDS011;2540;50.928;6.856;2023-04-03T00:39:26;4.53;;;1.80;;
5042;SDS011;2540;50.928;6.856;2023-04-03T00:41:51;7.30;;;3.20;;
5042;SDS011;2540;50.928;6.856;2023-04-03T00:46:57;8.60;;;2.37;;
5042;SDS011;2540;50.928;6.856;2023-04-03T00:49:22;9.13;;;2.20;;
5042;SDS011;2540;50.928;6.856;2023-04-03T00:51:48;4.80;;;2.67;;
5042;SDS011;2540;50.928;6.856;2023-04-03T00:54:13;5.30;;;2.60;;
5042;SDS011;2540;50.928;6.856;2023-04-03T00:56:39;9.73;;;2.53;;
5042;SDS011;2540;50.928;6.856;2023-04-03T00:59:08;10.27;;;2.63;;
5042;SDS011;2540;50.928;6.856;2023-04-03T01:01:36;5.47;;;2.77;;
5042;SDS011;2540;50.928;6.856;2023-04-03T01:04:02;5.20;;;2.60;;
5042;SDS011;2540;50.928;6.856;2023-04-03T01:06:30;5.27;;;2.67;;
5042;SDS011;2540;50.928;6.856;2023-04-03T01:08:59;4.20;;;2.63;;
5042;SDS011;2540;50.928;6.856;2023-04-03T01:11:25;7.10;;;2.70;;
5042;SDS011;2540;50.928;6.856;2023-04-03T01:13:51;5.20;;;3.10;;
5042;SDS011;2540;50.928;6.856;2023-04-03T01:16:16;6.60;;;2.57;;
5042;SDS011;2540;50.928;6.856;2023-04-03T01:18:42;4.17;;;2.83;;
5042;SDS011;2540;50.928;6.856;2023-04-03T01:26:18;2.53;;;2.33;;
5042;SDS011;2540;50.928;6.856;2023-04-03T01:28:44;2.27;;;2.07;;
5042;SDS011;2540;50.928;6.856;2023-04-03T01:33:45;3.90;;;2.83;;
5042;SDS011;2540;50.928;6.856;2023-04-03T01:36:15;4.93;;;2.60;;
5042;SDS011;2540;50.928;6.856;2023-04-03T01:38:45;5.03;;;2.80;;
5042;SDS011;2540;50.928;6.856;2023-04-03T01:41:11;4.50;;;2.50;;
5042;SDS011;2540;50.928;6.856;2023-04-03T01:43:36;4.57;;;2.67;;
5042;SDS011;2540;50.928;6.856;2023-04-03T01:46:01;5.13;;;2.67;;
5042;SDS011;2540;50.928;6.856;2023-04-03T01:48:27;4.10;;;3.40;;
5042;SDS011;2540;50.928;6.856;2023-04-03T01:50:53;5.30;;;2.43;;
5042;SDS011;2540;50.928;6.856;2023-04-03T01:53:18;5.70;;;2.90;;
5042;SDS011;2540;50.928;6.856;2023-04-03T01:55:44;4.87;;;2.80;;
5042;SDS011;2540;50.928;6.856;2023-04-03T01:58:10;3.80;;;2.30;;
5042;SDS011;2540;50.928;6.856;2023-04-03T02:00:35;4.20;;;2.83;;
5042;SDS011;2540;50.928;6.856;2023-04-03T02:03:01;4.17;;;2.70;;
5042;SDS011;2540;50.928;6.856;2023-04-03T02:05:26;7.03;;;3.03;;
5042;SDS011;2540;50.928;6.856;2023-04-03T02:07:52;6.93;;;2.77;;
5042;SDS011;2540;50.928;6.856;2023-04-03T02:10:17;3.93;;;2.30;;
5042;SDS011;2540;50.928;6.856;2023-04-03T02:12:42;6.30;;;2.47;;
5042;SDS011;2540;50.928;6.856;2023-04-03T02:15:08;3.73;;;2.30;;
5042;SDS011;2540;50.928;6.856;2023-04-03T02:17:34;6.40;;;2.60;;
5042;SDS011;2540;50.928;6.856;2023-04-03T02:20:00;4.50;;;2.40;;
5042;SDS011;2540;50.928;6.856;2023-04-03T02:22:26;4.60;;;2.23;;
5042;SDS011;2540;50.928;6.856;2023-04-03T02:24:51;4.07;;;2.70;;
5042;SDS011;2540;50.928;6.856;2023-04-03T02:27:16;4.47;;;2.43;;
5042;SDS011;2540;50.928;6.856;2023-04-03T02:29:42;5.23;;;2.77;;
5042;SDS011;2540;50.928;6.856;2023-04-03T02:32:07;4.50;;;2.87;;
5042;SDS011;2540;50.928;6.856;2023-04-03T02:34:33;2.90;;;2.50;;
5042;SDS011;2540;50.928;6.856;2023-04-03T02:36:58;5.70;;;2.70;;
5042;SDS011;2540;50.928;6.856;2023-04-03T02:39:23;5.40;;;2.63;;
5042;SDS011;2540;50.928;6.856;2023-04-03T02:41:49;4.30;;;2.90;;
5042;SDS011;2540;50.928;6.856;2023-04-03T02:44:14;3.63;;;2.73;;
5042;SDS011;2540;50.928;6.856;2023-04-03T02:46:40;8.70;;;3.40;;
5042;SDS011;2540;50.928;6.856;2023-04-03T02:49:05;4.83;;;2.80;;
5042;SDS011;2540;50.928;6.856;2023-04-03T02:51:31;5.50;;;3.10;;
5042;SDS011;2540;50.928;6.856;2023-04-03T02:53:56;4.97;;;3.27;;
5042;SDS011;2540;50.928;6.856;2023-04-03T02:56:22;7.03;;;3.50;;
5042;SDS011;2540;50.928;6.856;2023-04-03T02:58:47;4.00;;;3.13;;
5042;SDS011;2540;50.928;6.856;2023-04-03T03:01:13;6.03;;;3.43;;
5042;SDS011;2540;50.928;6.856;2023-04-03T03:03:38;10.90;;;3.33;;
5042;SDS011;2540;50.928;6.856;2023-04-03T03:06:08;4.20;;;3.00;;
5042;SDS011;2540;50.928;6.856;2023-04-03T03:08:35;7.83;;;4.13;;
5042;SDS011;2540;50.928;6.856;2023-04-03T03:11:00;5.10;;;3.37;;
5042;SDS011;2540;50.928;6.856;2023-04-03T03:13:26;7.13;;;4.03;;
5042;SDS011;2540;50.928;6.856;2023-04-03T03:15:51;6.23;;;4.27;;
5042;SDS011;2540;50.928;6.856;2023-04-03T03:18:17;9.63;;;4.30;;
5042;SDS011;2540;50.928;6.856;2023-04-03T03:20:42;6.70;;;4.67;;
5042;SDS011;2540;50.928;6.856;2023-04-03T03:23:08;8.10;;;4.20;;
5042;SDS011;2540;50.928;6.856;2023-04-03T03:25:33;9.80;;;4.17;;
5042;SDS011;2540;50.928;6.856;2023-04-03T03:28:03;6.87;;;4.17;;
5042;SDS011;2540;50.928;6.856;2023-04-03T03:30:28;7.30;;;4.50;;
5042;SDS011;2540;50.928;6.856;2023-04-03T03:32:54;8.53;;;4.30;;
5042;SDS011;2540;50.928;6.856;2023-04-03T03:35:19;6.20;;;4.23;;
5042;SDS011;2540;50.928;6.856;2023-04-03T03:37:44;6.03;;;3.90;;
5042;SDS011;2540;50.928;6.856;2023-04-03T03:40:10;6.80;;;3.93;;
5042;SDS011;2540;50.928;6.856;2023-04-03T03:42:37;5.30;;;3.73;;
5042;SDS011;2540;50.928;6.856;2023-04-03T03:45:03;7.00;;;4.30;;
5042;SDS011;2540;50.928;6.856;2023-04-03T03:47:29;7.70;;;4.10;;
5042;SDS011;2540;50.928;6.856;2023-04-03T03:49:54;9.50;;;4.10;;
5042;SDS011;2540;50.928;6.856;2023-04-03T03:52:19;4.97;;;3.33;;
5042;SDS011;2540;50.928;6.856;2023-04-03T03:54:45;9.00;;;4.07;;
5042;SDS011;2540;50.928;6.856;2023-04-03T03:57:10;7.67;;;3.80;;
5042;SDS011;2540;50.928;6.856;2023-04-03T03:59:35;6.40;;;3.50;;
5042;SDS011;2540;50.928;6.856;2023-04-03T04:02:01;5.70;;;3.90;;
5042;SDS011;2540;50.928;6.856;2023-04-03T04:04:26;8.67;;;3.90;;
5042;SDS011;2540;50.928;6.856;2023-04-03T04:06:51;3.20;;;2.73;;
5042;SDS011;2540;50.928;6.856;2023-04-03T04:09:17;4.73;;;2.87;;
5042;SDS011;2540;50.928;6.856;2023-04-03T04:11:43;7.30;;;3.30;;
5042;SDS011;2540;50.928;6.856;2023-04-03T04:14:08;6.13;;;2.57;;
5042;SDS011;2540;50.928;6.856;2023-04-03T04:16:35;7.13;;;2.57;;
5042;SDS011;2540;50.928;6.856;2023-04-03T04:19:00;5.03;;;2.50;;
5042;SDS011;2540;50.928;6.856;2023-04-03T04:21:26;5.17;;;2.73;;
5042;SDS011;2540;50.928;6.856;2023-04-03T04:23:51;3.03;;;2.20;;
5042;SDS011;2540;50.928;6.856;2023-04-03T04:26:17;6.60;;;2.30;;
5042;SDS011;2540;50.928;6.856;2023-04-03T04:28:42;7.73;;;2.70;;
5042;SDS011;2540;50.928;6.856;2023-04-03T04:31:07;3.60;;;2.13;;
5042;SDS011;2540;50.928;6.856;2023-04-03T04:33:32;4.13;;;2.60;;
5042;SDS011;2540;50.928;6.856;2023-04-03T04:35:58;6.27;;;2.47;;
5042;SDS011;2540;50.928;6.856;2023-04-03T04:38:23;8.20;;;2.80;;
5042;SDS011;2540;50.928;6.856;2023-04-03T04:40:48;3.97;;;2.57;;
5042;SDS011;2540;50.928;6.856;2023-04-03T04:43:14;4.00;;;2.53;;
5042;SDS011;2540;50.928;6.856;2023-04-03T04:45:40;6.17;;;2.40;;
5042;SDS011;2540;50.928;6.856;2023-04-03T04:48:06;4.00;;;2.67;;
5042;SDS011;2540;50.928;6.856;2023-04-03T04:50:31;8.70;;;2.60;;
5042;SDS011;2540;50.928;6.856;2023-04-03T04:52:57;4.50;;;2.00;;
5042;SDS011;2540;50.928;6.856;2023-04-03T04:55:22;3.97;;;1.90;;
5042;SDS011;2540;50.928;6.856;2023-04-03T04:57:47;11.87;;;2.70;;
5042;SDS011;2540;50.928;6.856;2023-04-03T05:00:13;2.50;;;2.30;;
5042;SDS011;2540;50.928;6.856;2023-04-03T05:02:39;2.47;;;2.10;;
5042;SDS011;2540;50.928;6.856;2023-04-03T05:05:05;4.37;;;2.17;;
5042;SDS011;2540;50.928;6.856;2023-04-03T05:07:30;7.67;;;2.40;;
5042;SDS011;2540;50.928;6.856;2023-04-03T05:09:55;4.13;;;1.90;;
5042;SDS011;2540;50.928;6.856;2023-04-03T05:12:21;6.90;;;2.57;;
5042;SDS011;2540;50.928;6.856;2023-04-03T05:14:47;1.80;;;1.70;;
5042;SDS011;2540;50.928;6.856;2023-04-03T05:17:12;3.77;;;1.93;;
5042;SDS011;2540;50.928;6.856;2023-04-03T05:19:37;7.40;;;1.80;;
5042;SDS011;2540;50.928;6.856;2023-04-03T05:22:03;4.33;;;1.87;;
5042;SDS011;2540;50.928;6.856;2023-04-03T05:24:28;3.37;;;2.40;;
5042;SDS011;2540;50.928;6.856;2023-04-03T05:26:53;7.97;;;2.50;;
5042;SDS011;2540;50.928;6.856;2023-04-03T05:29:19;4.33;;;2.67;;
5042;SDS011;2540;50.928;6.856;2023-04-03T05:31:44;4.70;;;2.20;;
5042;SDS011;2540;50.928;6.856;2023-04-03T05:34:09;4.63;;;1.83;;
5042;SDS011;2540;50.928;6.856;2023-04-03T05:36:36;10.13;;;2.87;;
5042;SDS011;2540;50.928;6.856;2023-04-03T05:39:01;3.40;;;2.10;;
5042;SDS011;2540;50.928;6.856;2023-04-03T05:41:27;4.60;;;2.40;;
5042;SDS011;2540;50.928;6.856;2023-04-03T05:43:53;7.23;;;3.03;;
5042;SDS011;2540;50.928;6.856;2023-04-03T05:46:18;3.43;;;2.10;;
5042;SDS011;2540;50.928;6.856;2023-04-03T05:48:45;2.07;;;1.63;;
5042;SDS011;2540;50.928;6.856;2023-04-03T05:51:22;7.57;;;2.13;;
5042;SDS011;2540;50.928;6.856;2023-04-03T05:53:52;3.83;;;2.13;;
5042;SDS011;2540;50.928;6.856;2023-04-03T05:56:40;4.40;;;2.67;;
5042;SDS011;2540;50.928;6.856;2023-04-03T05:59:05;5.30;;;2.27;;
5042;SDS011;2540;50.928;6.856;2023-04-03T06:01:32;4.10;;;2.63;;
5042;SDS011;2540;50.928;6.856;2023-04-03T06:03:59;3.47;;;2.20;;
5042;SDS011;2540;50.928;6.856;2023-04-03T06:06:24;13.73;;;2.77;;
5042;SDS011;2540;50.928;6.856;2023-04-03T06:08:50;8.00;;;3.10;;
5042;SDS011;2540;50.928;6.856;2023-04-03T06:11:15;8.27;;;2.83;;
5042;SDS011;2540;50.928;6.856;2023-04-03T06:13:41;3.03;;;2.47;;
5042;SDS011;2540;50.928;6.856;2023-04-03T06:16:07;4.20;;;2.20;;
5042;SDS011;2540;50.928;6.856;2023-04-03T06:18:34;4.50;;;2.57;;
5042;SDS011;2540;50.928;6.856;2023-04-03T06:21:00;2.63;;;2.00;;
5042;SDS011;2540;50.928;6.856;2023-04-03T06:23:26;4.60;;;2.30;;
5042;SDS011;2540;50.928;6.856;2023-04-03T06:25:51;4.30;;;1.97;;
5042;SDS011;2540;50.928;6.856;2023-04-03T06:28:16;3.17;;;1.80;;
5042;SDS011;2540;50.928;6.856;2023-04-03T06:30:44;3.63;;;1.97;;
5042;SDS011;2540;50.928;6.856;2023-04-03T06:33:09;4.30;;;1.67;;
5042;SDS011;2540;50.928;6.856;2023-04-03T06:35:35;4.47;;;1.80;;
5042;SDS011;2540;50.928;6.856;2023-04-03T06:38:01;5.87;;;1.93;;
5042;SDS011;2540;50.928;6.856;2023-04-03T06:40:29;6.37;;;1.93;;
5042;SDS011;2540;50.928;6.856;2023-04-03T06:42:54;4.33;;;1.90;;
5042;SDS011;2540;50.928;6.856;2023-04-03T06:45:19;6.37;;;1.60;;
5042;SDS011;2540;50.928;6.856;2023-04-03T06:47:46;9.90;;;2.00;;
5042;SDS011;2540;50.928;6.856;2023-04-03T06:50:11;5.23;;;1.97;;
5042;SDS011;2540;50.928;6.856;2023-04-03T06:52:39;16.30;;;3.03;;
5042;SDS011;2540;50.928;6.856;2023-04-03T06:55:04;12.60;;;3.17;;
5042;SDS011;2540;50.928;6.856;2023-04-03T06:57:30;11.63;;;2.70;;
5042;SDS011;2540;50.928;6.856;2023-04-03T06:59:55;4.50;;;1.80;;
5042;SDS011;2540;50.928;6.856;2023-04-03T07:02:20;2.80;;;2.00;;
5042;SDS011;2540;50.928;6.856;2023-04-03T07:04:46;8.83;;;1.57;;
5042;SDS011;2540;50.928;6.856;2023-04-03T07:07:11;7.43;;;1.70;;
5042;SDS011;2540;50.928;6.856;2023-04-03T07:09:37;6.17;;;1.60;;
5042;SDS011;2540;50.928;6.856;2023-04-03T07:12:02;2.63;;;1.20;;
5042;SDS011;2540;50.928;6.856;2023-04-03T07:14:28;3.03;;;1.30;;
5042;SDS011;2540;50.928;6.856;2023-04-03T07:16:53;6.10;;;1.90;;
5042;SDS011;2540;50.928;6.856;2023-04-03T07:19:18;7.50;;;1.73;;
5042;SDS011;2540;50.928;6.856;2023-04-03T07:21:44;4.83;;;1.33;;
5042;SDS011;2540;50.928;6.856;2023-04-03T07:24:09;5.40;;;1.67;;
5042;SDS011;2540;50.928;6.856;2023-04-03T07:26:35;3.73;;;1.47;;
5042;SDS011;2540;50.928;6.856;2023-04-03T07:29:01;4.17;;;1.33;;
5042;SDS011;2540;50.928;6.856;2023-04-03T07:31:26;8.60;;;1.33;;
5042;SDS011;2540;50.928;6.856;2023-04-03T07:33:52;3.03;;;1.30;;
5042;SDS011;2540;50.928;6.856;2023-04-03T07:36:18;4.67;;;1.67;;
5042;SDS011;2540;50.928;6.856;2023-04-03T07:38:45;5.47;;;1.30;;
5042;SDS011;2540;50.928;6.856;2023-04-03T07:41:12;3.23;;;1.07;;
5042;SDS011;2540;50.928;6.856;2023-04-03T07:43:40;6.10;;;1.80;;
5042;SDS011;2540;50.928;6.856;2023-04-03T07:46:06;4.23;;;1.20;;
5042;SDS011;2540;50.928;6.856;2023-04-03T07:48:31;4.63;;;1.13;;
5042;SDS011;2540;50.928;6.856;2023-04-03T07:51:00;4.27;;;1.27;;
5042;SDS011;2540;50.928;6.856;2023-04-03T07:53:26;3.53;;;1.10;;
5042;SDS011;2540;50.928;6.856;2023-04-03T07:55:52;2.80;;;1.40;;
5042;SDS011;2540;50.928;6.856;2023-04-03T07:58:20;1.37;;;1.07;;
5042;SDS011;2540;50.928;6.856;2023-04-03T08:00:46;2.30;;;1.00;;
5042;SDS011;2540;50.928;6.856;2023-04-03T08:03:12;6.97;;;1.90;;
5042;SDS011;2540;50.928;6.856;2023-04-03T08:05:38;7.53;;;1.33;;
5042;SDS011;2540;50.928;6.856;2023-04-03T08:08:07;5.53;;;1.23;;
5042;SDS011;2540;50.928;6.856;2023-04-03T08:10:33;4.87;;;1.07;;
5042;SDS011;2540;50.928;6.856;2023-04-03T08:12:59;4.20;;;1.77;;
5042;SDS011;2540;50.928;6.856;2023-04-03T08:15:24;2.93;;;1.27;;
5042;SDS011;2540;50.928;6.856;2023-04-03T08:17:50;4.20;;;1.40;;
5042;SDS011;2540;50.928;6.856;2023-04-03T08:20:15;2.93;;;0.90;;
5042;SDS011;2540;50.928;6.856;2023-04-03T08:22:41;2.30;;;1.07;;
5042;SDS011;2540;50.928;6.856;2023-04-03T08:25:06;7.00;;;1.23;;
5042;SDS011;2540;50.928;6.856;2023-04-03T08:27:32;1.77;;;1.23;;
5042;SDS011;2540;50.928;6.856;2023-04-03T08:29:58;9.20;;;1.50;;
5042;SDS011;2540;50.928;6.856;2023-04-03T08:32:23;4.57;;;1.37;;
5042;SDS011;2540;50.928;6.856;2023-04-03T08:34:49;5.40;;;1.37;;
5042;SDS011;2540;50.928;6.856;2023-04-03T08:37:14;8.70;;;1.77;;
5042;SDS011;2540;50.928;6.856;2023-04-03T08:39:41;4.53;;;1.37;;
5042;SDS011;2540;50.928;6.856;2023-04-03T08:42:50;3.00;;;1.30;;
5042;SDS011;2540;50.928;6.856;2023-04-03T08:45:12;3.07;;;1.27;;
5042;SDS011;2540;50.928;6.856;2023-04-03T08:50:16;2.30;;;0.70;;
5042;SDS011;2540;50.928;6.856;2023-04-03T08:52:45;2.40;;;1.03;;
5042;SDS011;2540;50.928;6.856;2023-04-03T08:55:23;4.93;;;1.30;;
5042;SDS011;2540;50.928;6.856;2023-04-03T08:58:01;5.57;;;0.90;;
5042;SDS011;2540;50.928;6.856;2023-04-03T09:03:17;5.53;;;0.97;;
5042;SDS011;2540;50.928;6.856;2023-04-03T09:05:48;3.00;;;0.97;;
5042;SDS011;2540;50.928;6.856;2023-04-03T09:13:54;4.20;;;1.50;;
5042;SDS011;2540;50.928;6.856;2023-04-03T09:16:47;7.70;;;1.03;;
5042;SDS011;2540;50.928;6.856;2023-04-03T09:21:56;1.60;;;1.00;;
5042;SDS011;2540;50.928;6.856;2023-04-03T09:24:39;3.47;;;0.90;;
5042;SDS011;2540;50.928;6.856;2023-04-03T09:27:06;2.90;;;1.10;;
5042;SDS011;2540;50.928;6.856;2023-04-03T09:29:35;3.67;;;1.10;;
5042;SDS011;2540;50.928;6.856;2023-04-03T09:32:12;10.63;;;1.03;;
5042;SDS011;2540;50.928;6.856;2023-04-03T09:34:44;0.80;;;0.80;;
5042;SDS011;2540;50.928;6.856;2023-04-03T09:37:09;3.30;;;1.00;;
5042;SDS011;2540;50.928;6.856;2023-04-03T09:39:57;4.00;;;0.90;;
5042;SDS011;2540;50.928;6.856;2023-04-03T09:42:24;3.77;;;1.40;;
5042;SDS011;2540;50.928;6.856;2023-04-03T09:44:54;5.87;;;1.43;;
5042;SDS011;2540;50.928;6.856;2023-04-03T09:52:37;1.27;;;0.97;;
5042;SDS011;2540;50.928;6.856;2023-04-03T09:57:58;4.60;;;1.07;;
5042;SDS011;2540;50.928;6.856;2023-04-03T10:00:36;6.37;;;1.23;;
5042;SDS011;2540;50.928;6.856;2023-04-03T10:03:03;1.00;;;0.70;;
5042;SDS011;2540;50.928;6.856;2023-04-03T10:05:40;3.10;;;1.20;;
5042;SDS011;2540;50.928;6.856;2023-04-03T10:10:44;2.93;;;1.07;;
5042;SDS011;2540;50.928;6.856;2023-04-03T10:15:44;1.13;;;0.70;;
5042;SDS011;2540;50.928;6.856;2023-04-03T10:24:11;2.20;;;1.10;;
5042;SDS011;2540;50.928;6.856;2023-04-03T10:27:03;3.80;;;0.97;;
5042;SDS011;2540;50.928;6.856;2023-04-03T10:41:04;1.27;;;1.00;;
5042;SDS011;2540;50.928;6.856;2023-04-03T10:46:11;1.87;;;0.97;;
5042;SDS011;2540;50.928;6.856;2023-04-03T10:51:48;5.17;;;1.00;;
5042;SDS011;2540;50.928;6.856;2023-04-03T10:54:29;3.07;;;1.00;;
5042;SDS011;2540;50.928;6.856;2023-04-03T10:57:17;0.97;;;0.63;;
5042;SDS011;2540;50.928;6.856;2023-04-03T10:59:50;0.90;;;0.70;;
5042;SDS011;2540;50.928;6.856;2023-04-03T11:03:22;1.43;;;1.00;;
5042;SDS011;2540;50.928;6.856;2023-04-03T11:08:02;1.47;;;0.77;;
5042;SDS011;2540;50.928;6.856;2023-04-03T11:10:48;2.13;;;1.10;;
5042;SDS011;2540;50.928;6.856;2023-04-03T11:13:19;1.23;;;0.90;;
5042;SDS011;2540;50.928;6.856;2023-04-03T11:15:48;0.90;;;0.70;;
5042;SDS011;2540;50.928;6.856;2023-04-03T11:18:15;2.33;;;0.87;;
5042;SDS011;2540;50.928;6.856;2023-04-03T11:20:47;2.00;;;0.80;;
5042;SDS011;2540;50.928;6.856;2023-04-03T11:23:21;1.23;;;0.80;;
5042;SDS011;2540;50.928;6.856;2023-04-03T11:25:51;2.27;;;1.20;;
5042;SDS011;2540;50.928;6.856;2023-04-03T11:28:18;2.40;;;0.83;;
5042;SDS011;2540;50.928;6.856;2023-04-03T11:31:30;0.73;;;0.73;;
5042;SDS011;2540;50.928;6.856;2023-04-03T11:36:22;1.60;;;1.00;;
5042;SDS011;2540;50.928;6.856;2023-04-03T11:38:50;3.80;;;0.80;;
5042;SDS011;2540;50.928;6.856;2023-04-03T11:41:21;3.63;;;0.80;;
5042;SDS011;2540;50.928;6.856;2023-04-03T12:13:36;2.40;;;1.00;;
5042;SDS011;2540;50.928;6.856;2023-04-03T12:16:05;5.03;;;1.07;;
5042;SDS011;2540;50.928;6.856;2023-04-03T12:18:41;2.20;;;1.30;;
5042;SDS011;2540;50.928;6.856;2023-04-03T12:21:18;1.57;;;1.07;;
5042;SDS011;2540;50.928;6.856;2023-04-03T12:29:39;1.67;;;0.87;;
5042;SDS011;2540;50.928;6.856;2023-04-03T12:40:16;0.80;;;0.80;;
5042;SDS011;2540;50.928;6.856;2023-04-03T12:42:58;1.80;;;1.00;;
5042;SDS011;2540;50.928;6.856;2023-04-03T12:48:15;1.77;;;0.93;;
5042;SDS011;2540;50.928;6.856;2023-04-03T12:50:43;2.67;;;1.30;;
5042;SDS011;2540;50.928;6.856;2023-04-03T12:53:18;2.10;;;0.93;;
5042;SDS011;2540;50.928;6.856;2023-04-03T12:55:44;2.03;;;0.93;;
5042;SDS011;2540;50.928;6.856;2023-04-03T12:58:19;3.57;;;1.10;;
5042;SDS011;2540;50.928;6.856;2023-04-03T13:00:47;4.43;;;1.10;;
5042;SDS011;2540;50.928;6.856;2023-04-03T13:03:47;5.53;;;1.00;;
5042;SDS011;2540;50.928;6.856;2023-04-03T13:06:16;1.37;;;1.10;;
5042;SDS011;2540;50.928;6.856;2023-04-03T13:12:11;3.33;;;1.10;;
5042;SDS011;2540;50.928;6.856;2023-04-03T13:14:37;1.10;;;0.70;;
5042;SDS011;2540;50.928;6.856;2023-04-03T13:17:05;1.80;;;0.90;;
5042;SDS011;2540;50.928;6.856;2023-04-03T13:19:35;2.10;;;0.93;;
5042;SDS011;2540;50.928;6.856;2023-04-03T13:22:02;1.80;;;1.20;;
5042;SDS011;2540;50.928;6.856;2023-04-03T13:24:30;1.53;;;0.80;;
5042;SDS011;2540;50.928;6.856;2023-04-03T13:26:58;0.90;;;0.80;;
5042;SDS011;2540;50.928;6.856;2023-04-03T13:29:29;4.20;;;1.23;;
5042;SDS011;2540;50.928;6.856;2023-04-03T13:31:57;1.90;;;0.97;;
5042;SDS011;2540;50.928;6.856;2023-04-03T13:34:25;2.60;;;0.97;;
5042;SDS011;2540;50.928;6.856;2023-04-03T13:37:00;1.50;;;0.90;;
5042;SDS011;2540;50.928;6.856;2023-04-03T13:41:52;4.20;;;1.20;;
5042;SDS011;2540;50.928;6.856;2023-04-03T13:46:52;5.53;;;1.47;;
5042;SDS011;2540;50.928;6.856;2023-04-03T13:49:31;1.00;;;0.90;;
5042;SDS011;2540;50.928;6.856;2023-04-03T13:51:57;3.03;;;0.90;;
5042;SDS011;2540;50.928;6.856;2023-04-03T13:54:28;1.60;;;1.00;;
5042;SDS011;2540;50.928;6.856;2023-04-03T13:56:59;2.33;;;1.13;;
5042;SDS011;2540;50.928;6.856;2023-04-03T13:59:33;1.50;;;0.90;;
5042;SDS011;2540;50.928;6.856;2023-04-03T14:02:10;1.23;;;1.00;;
5042;SDS011;2540;50.928;6.856;2023-04-03T14:07:05;1.03;;;0.93;;
5042;SDS011;2540;50.928;6.856;2023-04-03T14:09:31;2.80;;;1.03;;
5042;SDS011;2540;50.928;6.856;2023-04-03T14:11:57;1.77;;;0.90;;
5042;SDS011;2540;50.928;6.856;2023-04-03T14:14:32;3.13;;;0.90;;
5042;SDS011;2540;50.928;6.856;2023-04-03T14:16:59;1.33;;;0.90;;
5042;SDS011;2540;50.928;6.856;2023-04-03T14:19:28;1.37;;;1.00;;
5042;SDS011;2540;50.928;6.856;2023-04-03T14:21:55;3.00;;;1.20;;
5042;SDS011;2540;50.928;6.856;2023-04-03T14:24:21;2.93;;;0.97;;
5042;SDS011;2540;50.928;6.856;2023-04-03T14:26:48;6.63;;;1.37;;
5042;SDS011;2540;50.928;6.856;2023-04-03T14:29:15;3.13;;;1.20;;
5042;SDS011;2540;50.928;6.856;2023-04-03T14:31:42;1.20;;;1.10;;
5042;SDS011;2540;50.928;6.856;2023-04-03T14:34:09;3.80;;;1.50;;
5042;SDS011;2540;50.928;6.856;2023-04-03T14:36:35;1.70;;;0.80;;
5042;SDS011;2540;50.928;6.856;2023-04-03T14:39:02;2.93;;;1.10;;
5042;SDS011;2540;50.928;6.856;2023-04-03T14:41:28;3.67;;;1.33;;
5042;SDS011;2540;50.928;6.856;2023-04-03T14:43:54;2.13;;;1.20;;
5042;SDS011;2540;50.928;6.856;2023-04-03T14:46:22;1.13;;;1.00;;
5042;SDS011;2540;50.928;6.856;2023-04-03T14:48:51;1.90;;;0.90;;
5042;SDS011;2540;50.928;6.856;2023-04-03T14:51:16;2.27;;;1.10;;
5042;SDS011;2540;50.928;6.856;2023-04-03T14:53:42;1.20;;;0.90;;
5042;SDS011;2540;50.928;6.856;2023-04-03T14:56:14;2.30;;;1.07;;
5042;SDS011;2540;50.928;6.856;2023-04-03T14:58:41;2.40;;;1.33;;
5042;SDS011;2540;50.928;6.856;2023-04-03T15:01:08;1.33;;;1.17;;
5042;SDS011;2540;50.928;6.856;2023-04-03T15:03:35;2.10;;;1.10;;
5042;SDS011;2540;50.928;6.856;2023-04-03T15:06:00;4.17;;;1.37;;
5042;SDS011;2540;50.928;6.856;2023-04-03T15:08:26;0.80;;;0.80;;
5042;SDS011;2540;50.928;6.856;2023-04-03T15:10:54;2.73;;;1.27;;
5042;SDS011;2540;50.928;6.856;2023-04-03T15:13:23;4.63;;;1.10;;
5042;SDS011;2540;50.928;6.856;2023-04-03T15:15:49;1.30;;;1.10;;
5042;SDS011;2540;50.928;6.856;2023-04-03T15:18:20;1.13;;;1.00;;
5042;SDS011;2540;50.928;6.856;2023-04-03T15:20:47;1.80;;;1.00;;
5042;SDS011;2540;50.928;6.856;2023-04-03T15:23:13;3.70;;;1.10;;
5042;SDS011;2540;50.928;6.856;2023-04-03T15:25:41;1.43;;;1.10;;
5042;SDS011;2540;50.928;6.856;2023-04-03T15:28:08;1.37;;;1.00;;
5042;SDS011;2540;50.928;6.856;2023-04-03T15:30:36;1.83;;;1.00;;
5042;SDS011;2540;50.928;6.856;2023-04-03T15:33:03;2.10;;;1.17;;
5042;SDS011;2540;50.928;6.856;2023-04-03T15:35:28;1.63;;;1.10;;
5042;SDS011;2540;50.928;6.856;2023-04-03T15:37:53;1.87;;;1.77;;
5042;SDS011;2540;50.928;6.856;2023-04-03T15:40:19;2.57;;;1.20;;
5042;SDS011;2540;50.928;6.856;2023-04-03T15:42:44;1.37;;;0.90;;
5042;SDS011;2540;50.928;6.856;2023-04-03T15:45:10;3.10;;;1.20;;
5042;SDS011;2540;50.928;6.856;2023-04-03T15:47:35;1.70;;;1.13;;
5042;SDS011;2540;50.928;6.856;2023-04-03T15:50:00;1.23;;;1.10;;
5042;SDS011;2540;50.928;6.856;2023-04-03T15:52:26;2.27;;;1.07;;
5042;SDS011;2540;50.928;6.856;2023-04-03T15:54:51;1.50;;;0.70;;
5042;SDS011;2540;50.928;6.856;2023-04-03T15:57:16;1.90;;;1.00;;
5042;SDS011;2540;50.928;6.856;2023-04-03T15:59:43;2.40;;;1.33;;
5042;SDS011;2540;50.928;6.856;2023-04-03T16:02:08;2.10;;;1.50;;
5042;SDS011;2540;50.928;6.856;2023-04-03T16:04:35;1.27;;;0.90;;
5042;SDS011;2540;50.928;6.856;2023-04-03T16:07:01;3.80;;;1.50;;
5042;SDS011;2540;50.928;6.856;2023-04-03T16:09:27;2.70;;;1.20;;
5042;SDS011;2540;50.928;6.856;2023-04-03T16:11:53;2.83;;;1.43;;
5042;SDS011;2540;50.928;6.856;2023-04-03T16:14:18;2.93;;;1.03;;
5042;SDS011;2540;50.928;6.856;2023-04-03T16:16:43;1.33;;;1.00;;
5042;SDS011;2540;50.928;6.856;2023-04-03T16:19:08;2.37;;;1.10;;
5042;SDS011;2540;50.928;6.856;2023-04-03T16:21:34;2.40;;;1.70;;
5042;SDS011;2540;50.928;6.856;2023-04-03T16:24:00;8.93;;;2.50;;
5042;SDS011;2540;50.928;6.856;2023-04-03T16:26:26;1.30;;;1.10;;
5042;SDS011;2540;50.928;6.856;2023-04-03T16:28:51;1.77;;;0.90;;
5042;SDS011;2540;50.928;6.856;2023-04-03T16:31:17;3.70;;;1.00;;
5042;SDS011;2540;50.928;6.856;2023-04-03T16:33:43;1.50;;;1.13;;
5042;SDS011;2540;50.928;6.856;2023-04-03T16:36:08;1.40;;;0.80;;
5042;SDS011;2540;50.928;6.856;2023-04-03T16:38:33;1.57;;;1.00;;
5042;SDS011;2540;50.928;6.856;2023-04-03T16:41:00;2.93;;;1.40;;
5042;SDS011;2540;50.928;6.856;2023-04-03T16:43:29;1.50;;;0.90;;
5042;SDS011;2540;50.928;6.856;2023-04-03T16:45:57;6.90;;;1.10;;
5042;SDS011;2540;50.928;6.856;2023-04-03T16:48:23;1.33;;;0.77;;
5042;SDS011;2540;50.928;6.856;2023-04-03T16:50:48;0.83;;;0.80;;
5042;SDS011;2540;50.928;6.856;2023-04-03T16:53:17;0.90;;;0.90;;
5042;SDS011;2540;50.928;6.856;2023-04-03T16:55:43;0.93;;;0.90;;
5042;SDS011;2540;50.928;6.856;2023-04-03T16:58:08;3.20;;;1.30;;
5042;SDS011;2540;50.928;6.856;2023-04-03T17:00:35;5.50;;;1.23;;
5042;SDS011;2540;50.928;6.856;2023-04-03T17:03:01;3.07;;;1.10;;
5042;SDS011;2540;50.928;6.856;2023-04-03T17:05:26;2.57;;;1.20;;
5042;SDS011;2540;50.928;6.856;2023-04-03T17:07:51;2.17;;;0.90;;
5042;SDS011;2540;50.928;6.856;2023-04-03T17:10:17;2.00;;;0.90;;
5042;SDS011;2540;50.928;6.856;2023-04-03T17:12:42;4.50;;;1.50;;
5042;SDS011;2540;50.928;6.856;2023-04-03T17:15:08;3.60;;;1.13;;
5042;SDS011;2540;50.928;6.856;2023-04-03T17:17:33;2.47;;;1.20;;
5042;SDS011;2540;50.928;6.856;2023-04-03T17:19:59;1.00;;;0.87;;